sensor_id;sensor_type;location;lat;lon;timestamp;P1;durP1;ratioP1;P2;durP2;ratioP2
15528;SDS011;7866;52.280;9.500;2023-12-20T00:02:11;6.67;;;4.67;;
15528;SDS011;7866;52.280;9.500;2023-12-20T00:07:15;6.10;;;4.53;;
15528;SDS011;7866;52.280;9.500;2023-12-20T00:12:16;6.37;;;4.30;;
15528;SDS011;7866;52.280;9.500;2023-12-20T00:17:18;4.50;;;4.07;;
15528;SDS011;7866;52.280;9.500;2023-12-20T00:22:21;4.80;;;4.00;;
15528;SDS011;7866;52.280;9.500;2023-12-20T00:27:23;4.83;;;4.07;;
15528;SDS011;7866;52.280;9.500;2023-12-20T00:32:25;5.60;;;3.30;;
15528;SDS011;7866;52.280;9.500;2023-12-20T00:37:27;4.83;;;2.73;;
15528;SDS011;7866;52.280;9.500;2023-12-20T00:42:29;4.83;;;2.40;;
15528;SDS011;7866;52.280;9.500;2023-12-20T00:47:31;4.10;;;2.13;;
15528;SDS011;7866;52.280;9.500;2023-12-20T00:52:34;6.23;;;2.30;;
15528;SDS011;7866;52.280;9.500;2023-12-20T00:57:35;5.50;;;2.30;;
15528;SDS011;7866;52.280;9.500;2023-12-20T01:02:37;6.37;;;2.00;;
15528;SDS011;7866;52.280;9.500;2023-12-20T01:07:40;6.23;;;2.00;;
15528;SDS011;7866;52.280;9.500;2023-12-20T01:12:42;7.83;;;2.40;;
15528;SDS011;7866;52.280;9.500;2023-12-20T01:17:44;5.07;;;1.90;;
15528;SDS011;7866;52.280;9.500;2023-12-20T01:22:47;5.30;;;2.03;;
15528;SDS011;7866;52.280;9.500;2023-12-20T01:27:48;4.13;;;2.03;;
15528;SDS011;7866;52.280;9.500;2023-12-20T01:32:51;4.77;;;2.10;;
15528;SDS011;7866;52.280;9.500;2023-12-20T01:37:54;6.10;;;2.40;;
15528;SDS011;7866;52.280;9.500;2023-12-20T01:42:59;8.17;;;2.50;;
15528;SDS011;7866;52.280;9.500;2023-12-20T01:48:01;7.83;;;2.33;;
15528;SDS011;7866;52.280;9.500;2023-12-20T01:53:07;4.13;;;2.37;;
15528;SDS011;7866;52.280;9.500;2023-12-20T01:58:10;3.67;;;1.57;;
15528;SDS011;7866;52.280;9.500;2023-12-20T02:03:13;9.00;;;2.10;;
15528;SDS011;7866;52.280;9.500;2023-12-20T02:08:16;4.47;;;2.00;;
15528;SDS011;7866;52.280;9.500;2023-12-20T02:13:18;5.37;;;1.70;;
15528;SDS011;7866;52.280;9.500;2023-12-20T02:18:19;8.63;;;3.20;;
15528;SDS011;7866;52.280;9.500;2023-12-20T02:23:22;4.20;;;2.13;;
15528;SDS011;7866;52.280;9.500;2023-12-20T02:28:24;5.37;;;2.00;;
15528;SDS011;7866;52.280;9.500;2023-12-20T02:33:26;5.07;;;1.70;;
15528;SDS011;7866;52.280;9.500;2023-12-20T02:38:29;7.53;;;2.00;;
15528;SDS011;7866;52.280;9.500;2023-12-20T02:43:31;3.60;;;1.60;;
15528;SDS011;7866;52.280;9.500;2023-12-20T02:48:33;7.60;;;1.70;;
15528;SDS011;7866;52.280;9.500;2023-12-20T02:53:36;3.87;;;1.50;;
15528;SDS011;7866;52.280;9.500;2023-12-20T02:58:37;5.70;;;1.50;;
15528;SDS011;7866;52.280;9.500;2023-12-20T03:03:39;3.57;;;1.67;;
15528;SDS011;7866;52.280;9.500;2023-12-20T03:08:42;5.03;;;1.50;;
15528;SDS011;7866;52.280;9.500;2023-12-20T03:13:44;5.50;;;1.60;;
15528;SDS011;7866;52.280;9.500;2023-12-20T03:18:45;5.73;;;1.63;;
15528;SDS011;7866;52.280;9.500;2023-12-20T03:23:48;5.57;;;1.80;;
15528;SDS011;7866;52.280;9.500;2023-12-20T03:28:50;5.40;;;1.83;;
15528;SDS011;7866;52.280;9.500;2023-12-20T03:33:52;5.40;;;1.70;;
15528;SDS011;7866;52.280;9.500;2023-12-20T03:38:55;8.03;;;2.27;;
15528;SDS011;7866;52.280;9.500;2023-12-20T03:43:56;6.57;;;1.90;;
15528;SDS011;7866;52.280;9.500;2023-12-20T03:48:58;4.40;;;1.80;;
15528;SDS011;7866;52.280;9.500;2023-12-20T03:54:01;9.23;;;1.87;;
15528;SDS011;7866;52.280;9.500;2023-12-20T03:59:03;6.07;;;2.20;;
15528;SDS011;7866;52.280;9.500;2023-12-20T04:04:04;4.30;;;1.80;;
15528;SDS011;7866;52.280;9.500;2023-12-20T04:09:07;7.70;;;2.17;;
15528;SDS011;7866;52.280;9.500;2023-12-20T04:14:10;7.17;;;2.40;;
15528;SDS011;7866;52.280;9.500;2023-12-20T04:19:12;8.97;;;2.20;;
15528;SDS011;7866;52.280;9.500;2023-12-20T04:24:15;6.13;;;2.50;;
15528;SDS011;7866;52.280;9.500;2023-12-20T04:29:16;4.43;;;1.90;;
15528;SDS011;7866;52.280;9.500;2023-12-20T04:34:18;11.60;;;2.80;;
15528;SDS011;7866;52.280;9.500;2023-12-20T04:39:21;9.63;;;2.47;;
15528;SDS011;7866;52.280;9.500;2023-12-20T04:44:22;7.70;;;2.33;;
15528;SDS011;7866;52.280;9.500;2023-12-20T04:49:24;5.17;;;2.30;;
15528;SDS011;7866;52.280;9.500;2023-12-20T04:54:27;7.80;;;3.03;;
15528;SDS011;7866;52.280;9.500;2023-12-20T04:59:29;8.10;;;2.73;;
15528;SDS011;7866;52.280;9.500;2023-12-20T05:04:31;8.00;;;2.53;;
15528;SDS011;7866;52.280;9.500;2023-12-20T05:09:34;9.00;;;2.80;;
15528;SDS011;7866;52.280;9.500;2023-12-20T05:14:35;8.67;;;2.87;;
15528;SDS011;7866;52.280;9.500;2023-12-20T05:19:37;10.13;;;3.10;;
15528;SDS011;7866;52.280;9.500;2023-12-20T05:24:40;10.13;;;3.13;;
15528;SDS011;7866;52.280;9.500;2023-12-20T05:29:41;12.03;;;3.77;;
15528;SDS011;7866;52.280;9.500;2023-12-20T05:34:43;8.33;;;2.80;;
15528;SDS011;7866;52.280;9.500;2023-12-20T05:39:46;10.57;;;3.30;;
15528;SDS011;7866;52.280;9.500;2023-12-20T05:44:48;8.77;;;2.83;;
15528;SDS011;7866;52.280;9.500;2023-12-20T05:49:49;8.10;;;3.17;;
15528;SDS011;7866;52.280;9.500;2023-12-20T05:54:52;7.03;;;2.77;;
15528;SDS011;7866;52.280;9.500;2023-12-20T05:59:54;6.40;;;2.90;;
15528;SDS011;7866;52.280;9.500;2023-12-20T06:04:56;14.53;;;3.20;;
15528;SDS011;7866;52.280;9.500;2023-12-20T06:09:59;8.07;;;3.30;;
15528;SDS011;7866;52.280;9.500;2023-12-20T06:15:00;10.43;;;3.70;;
15528;SDS011;7866;52.280;9.500;2023-12-20T06:20:03;11.43;;;3.60;;
15528;SDS011;7866;52.280;9.500;2023-12-20T06:25:09;7.67;;;3.00;;
15528;SDS011;7866;52.280;9.500;2023-12-20T06:30:11;7.33;;;2.87;;
15528;SDS011;7866;52.280;9.500;2023-12-20T06:35:13;12.47;;;3.10;;
15528;SDS011;7866;52.280;9.500;2023-12-20T06:40:16;11.53;;;3.40;;
15528;SDS011;7866;52.280;9.500;2023-12-20T06:45:17;10.20;;;3.30;;
15528;SDS011;7866;52.280;9.500;2023-12-20T06:50:19;11.30;;;3.00;;
15528;SDS011;7866;52.280;9.500;2023-12-20T06:55:22;9.57;;;3.07;;
15528;SDS011;7866;52.280;9.500;2023-12-20T07:00:24;13.50;;;3.30;;
15528;SDS011;7866;52.280;9.500;2023-12-20T07:05:25;13.57;;;3.60;;
15528;SDS011;7866;52.280;9.500;2023-12-20T07:10:28;8.97;;;2.80;;
15528;SDS011;7866;52.280;9.500;2023-12-20T07:15:30;9.83;;;3.07;;
15528;SDS011;7866;52.280;9.500;2023-12-20T07:20:32;8.77;;;3.23;;
15528;SDS011;7866;52.280;9.500;2023-12-20T07:25:35;10.27;;;3.80;;
15528;SDS011;7866;52.280;9.500;2023-12-20T07:30:36;15.07;;;3.97;;
15528;SDS011;7866;52.280;9.500;2023-12-20T07:35:38;9.83;;;3.10;;
15528;SDS011;7866;52.280;9.500;2023-12-20T07:40:41;9.77;;;3.37;;
15528;SDS011;7866;52.280;9.500;2023-12-20T07:45:43;11.07;;;3.83;;
15528;SDS011;7866;52.280;9.500;2023-12-20T07:50:44;14.33;;;3.47;;
15528;SDS011;7866;52.280;9.500;2023-12-20T07:55:47;11.83;;;3.60;;
15528;SDS011;7866;52.280;9.500;2023-12-20T08:00:49;10.83;;;3.70;;
15528;SDS011;7866;52.280;9.500;2023-12-20T08:05:51;13.03;;;4.00;;
15528;SDS011;7866;52.280;9.500;2023-12-20T08:10:53;12.90;;;3.93;;
15528;SDS011;7866;52.280;9.500;2023-12-20T08:15:57;10.87;;;3.90;;
15528;SDS011;7866;52.280;9.500;2023-12-20T08:20:59;9.50;;;3.63;;
15528;SDS011;7866;52.280;9.500;2023-12-20T08:26:04;11.87;;;3.40;;
15528;SDS011;7866;52.280;9.500;2023-12-20T08:31:06;11.90;;;3.90;;
15528;SDS011;7866;52.280;9.500;2023-12-20T08:36:15;13.67;;;3.53;;
15528;SDS011;7866;52.280;9.500;2023-12-20T08:41:19;9.23;;;3.43;;
15528;SDS011;7866;52.280;9.500;2023-12-20T08:46:21;8.37;;;3.43;;
15528;SDS011;7866;52.280;9.500;2023-12-20T08:51:22;9.43;;;3.60;;
15528;SDS011;7866;52.280;9.500;2023-12-20T08:56:27;9.27;;;3.57;;
15528;SDS011;7866;52.280;9.500;2023-12-20T09:01:28;10.57;;;3.10;;
15528;SDS011;7866;52.280;9.500;2023-12-20T09:06:30;9.60;;;3.60;;
15528;SDS011;7866;52.280;9.500;2023-12-20T09:11:33;9.53;;;3.70;;
15528;SDS011;7866;52.280;9.500;2023-12-20T09:16:34;13.20;;;3.20;;
15528;SDS011;7866;52.280;9.500;2023-12-20T09:21:36;11.00;;;2.93;;
15528;SDS011;7866;52.280;9.500;2023-12-20T09:26:39;10.17;;;3.13;;
15528;SDS011;7866;52.280;9.500;2023-12-20T09:31:42;11.70;;;3.40;;
15528;SDS011;7866;52.280;9.500;2023-12-20T09:36:46;11.43;;;3.60;;
15528;SDS011;7866;52.280;9.500;2023-12-20T09:41:51;10.67;;;3.90;;
15528;SDS011;7866;52.280;9.500;2023-12-20T09:47:02;11.33;;;3.33;;
15528;SDS011;7866;52.280;9.500;2023-12-20T09:52:04;18.10;;;3.33;;
15528;SDS011;7866;52.280;9.500;2023-12-20T09:57:10;9.63;;;3.13;;
15528;SDS011;7866;52.280;9.500;2023-12-20T10:02:12;10.73;;;3.20;;
15528;SDS011;7866;52.280;9.500;2023-12-20T10:07:15;10.17;;;3.30;;
15528;SDS011;7866;52.280;9.500;2023-12-20T10:12:18;10.93;;;3.67;;
15528;SDS011;7866;52.280;9.500;2023-12-20T10:17:20;9.70;;;3.40;;
15528;SDS011;7866;52.280;9.500;2023-12-20T10:22:23;13.17;;;3.43;;
15528;SDS011;7866;52.280;9.500;2023-12-20T10:27:26;9.63;;;2.90;;
15528;SDS011;7866;52.280;9.500;2023-12-20T10:32:28;13.17;;;3.53;;
15528;SDS011;7866;52.280;9.500;2023-12-20T10:37:30;11.17;;;3.60;;
15528;SDS011;7866;52.280;9.500;2023-12-20T10:42:33;10.33;;;3.27;;
15528;SDS011;7866;52.280;9.500;2023-12-20T10:47:37;6.47;;;3.00;;
15528;SDS011;7866;52.280;9.500;2023-12-20T10:52:40;8.87;;;3.53;;
15528;SDS011;7866;52.280;9.500;2023-12-20T10:57:44;8.77;;;3.13;;
15528;SDS011;7866;52.280;9.500;2023-12-20T11:02:50;10.40;;;3.50;;
15528;SDS011;7866;52.280;9.500;2023-12-20T11:07:55;7.07;;;3.10;;
15528;SDS011;7866;52.280;9.500;2023-12-20T11:13:06;8.33;;;3.13;;
15528;SDS011;7866;52.280;9.500;2023-12-20T11:18:14;6.10;;;2.93;;
15528;SDS011;7866;52.280;9.500;2023-12-20T11:23:16;9.77;;;3.67;;
15528;SDS011;7866;52.280;9.500;2023-12-20T11:28:22;7.63;;;3.10;;
15528;SDS011;7866;52.280;9.500;2023-12-20T11:33:25;8.30;;;3.20;;
15528;SDS011;7866;52.280;9.500;2023-12-20T11:38:35;6.83;;;2.87;;
15528;SDS011;7866;52.280;9.500;2023-12-20T11:43:39;10.80;;;2.97;;
15528;SDS011;7866;52.280;9.500;2023-12-20T11:48:40;7.43;;;3.03;;
15528;SDS011;7866;52.280;9.500;2023-12-20T11:53:46;6.27;;;1.57;;
15528;SDS011;7866;52.280;9.500;2023-12-20T11:58:54;2.43;;;1.00;;
15528;SDS011;7866;52.280;9.500;2023-12-20T12:04:03;3.77;;;0.93;;
15528;SDS011;7866;52.280;9.500;2023-12-20T12:09:05;4.33;;;1.20;;
15528;SDS011;7866;52.280;9.500;2023-12-20T12:14:09;2.83;;;1.23;;
15528;SDS011;7866;52.280;9.500;2023-12-20T12:19:19;1.13;;;0.73;;
15528;SDS011;7866;52.280;9.500;2023-12-20T12:24:22;2.40;;;0.90;;
15528;SDS011;7866;52.280;9.500;2023-12-20T12:29:25;2.20;;;1.00;;
15528;SDS011;7866;52.280;9.500;2023-12-20T12:34:27;1.70;;;1.03;;
15528;SDS011;7866;52.280;9.500;2023-12-20T12:39:29;6.53;;;1.20;;
15528;SDS011;7866;52.280;9.500;2023-12-20T12:44:32;3.33;;;1.10;;
15528;SDS011;7866;52.280;9.500;2023-12-20T12:49:33;1.30;;;0.90;;
15528;SDS011;7866;52.280;9.500;2023-12-20T12:54:35;2.90;;;1.13;;
15528;SDS011;7866;52.280;9.500;2023-12-20T12:59:38;3.23;;;1.07;;
15528;SDS011;7866;52.280;9.500;2023-12-20T13:04:40;3.37;;;0.90;;
15528;SDS011;7866;52.280;9.500;2023-12-20T13:09:42;5.10;;;1.80;;
15528;SDS011;7866;52.280;9.500;2023-12-20T13:14:45;2.93;;;0.90;;
15528;SDS011;7866;52.280;9.500;2023-12-20T13:19:50;1.67;;;0.90;;
15528;SDS011;7866;52.280;9.500;2023-12-20T13:24:51;3.20;;;0.90;;
15528;SDS011;7866;52.280;9.500;2023-12-20T13:29:55;1.73;;;1.03;;
15528;SDS011;7866;52.280;9.500;2023-12-20T13:34:56;3.13;;;1.23;;
15528;SDS011;7866;52.280;9.500;2023-12-20T13:39:58;5.37;;;1.57;;
15528;SDS011;7866;52.280;9.500;2023-12-20T13:45:01;3.07;;;0.90;;
15528;SDS011;7866;52.280;9.500;2023-12-20T13:50:05;3.80;;;1.33;;
15528;SDS011;7866;52.280;9.500;2023-12-20T13:55:07;4.03;;;1.50;;
15528;SDS011;7866;52.280;9.500;2023-12-20T14:00:12;3.33;;;1.20;;
15528;SDS011;7866;52.280;9.500;2023-12-20T14:05:15;2.50;;;1.33;;
15528;SDS011;7866;52.280;9.500;2023-12-20T14:10:17;3.57;;;1.50;;
15528;SDS011;7866;52.280;9.500;2023-12-20T14:15:20;4.37;;;1.50;;
15528;SDS011;7866;52.280;9.500;2023-12-20T14:20:25;4.43;;;1.43;;
15528;SDS011;7866;52.280;9.500;2023-12-20T14:25:27;5.57;;;1.40;;
15528;SDS011;7866;52.280;9.500;2023-12-20T14:30:30;3.80;;;1.73;;
15528;SDS011;7866;52.280;9.500;2023-12-20T14:35:32;4.97;;;1.97;;
15528;SDS011;7866;52.280;9.500;2023-12-20T14:40:33;3.50;;;1.17;;
15528;SDS011;7866;52.280;9.500;2023-12-20T14:45:36;3.70;;;1.40;;
15528;SDS011;7866;52.280;9.500;2023-12-20T14:50:38;6.27;;;1.50;;
15528;SDS011;7866;52.280;9.500;2023-12-20T14:55:40;5.07;;;1.23;;
15528;SDS011;7866;52.280;9.500;2023-12-20T15:00:43;4.27;;;1.60;;
15528;SDS011;7866;52.280;9.500;2023-12-20T15:05:45;5.77;;;1.53;;
15528;SDS011;7866;52.280;9.500;2023-12-20T15:10:47;5.30;;;1.73;;
15528;SDS011;7866;52.280;9.500;2023-12-20T15:15:52;2.77;;;1.50;;
15528;SDS011;7866;52.280;9.500;2023-12-20T15:20:53;5.97;;;1.40;;
15528;SDS011;7866;52.280;9.500;2023-12-20T15:25:55;6.10;;;1.77;;
15528;SDS011;7866;52.280;9.500;2023-12-20T15:30:58;3.60;;;1.50;;
15528;SDS011;7866;52.280;9.500;2023-12-20T15:35:59;2.00;;;1.13;;
15528;SDS011;7866;52.280;9.500;2023-12-20T15:41:01;4.70;;;1.77;;
15528;SDS011;7866;52.280;9.500;2023-12-20T15:46:04;5.27;;;1.50;;
15528;SDS011;7866;52.280;9.500;2023-12-20T15:51:06;4.00;;;1.93;;
15528;SDS011;7866;52.280;9.500;2023-12-20T15:56:08;5.67;;;1.97;;
15528;SDS011;7866;52.280;9.500;2023-12-20T16:01:12;3.70;;;1.40;;
15528;SDS011;7866;52.280;9.500;2023-12-20T16:06:14;4.47;;;1.73;;
15528;SDS011;7866;52.280;9.500;2023-12-20T16:11:16;4.13;;;1.40;;
15528;SDS011;7866;52.280;9.500;2023-12-20T16:16:19;3.07;;;1.27;;
15528;SDS011;7866;52.280;9.500;2023-12-20T16:21:20;6.30;;;1.80;;
15528;SDS011;7866;52.280;9.500;2023-12-20T16:26:22;2.50;;;1.50;;
15528;SDS011;7866;52.280;9.500;2023-12-20T16:31:25;3.90;;;1.80;;
15528;SDS011;7866;52.280;9.500;2023-12-20T16:36:27;5.73;;;2.57;;
15528;SDS011;7866;52.280;9.500;2023-12-20T16:41:50;5.43;;;2.30;;
15528;SDS011;7866;52.280;9.500;2023-12-20T16:46:53;5.23;;;2.13;;
15528;SDS011;7866;52.280;9.500;2023-12-20T16:51:55;9.00;;;3.10;;
15528;SDS011;7866;52.280;9.500;2023-12-20T16:56:56;5.00;;;2.40;;
15528;SDS011;7866;52.280;9.500;2023-12-20T17:01:59;7.07;;;2.40;;
15528;SDS011;7866;52.280;9.500;2023-12-20T17:07:03;4.33;;;2.13;;
15528;SDS011;7866;52.280;9.500;2023-12-20T17:12:05;6.27;;;2.73;;
15528;SDS011;7866;52.280;9.500;2023-12-20T17:17:09;3.40;;;1.60;;
15528;SDS011;7866;52.280;9.500;2023-12-20T17:22:10;3.73;;;1.73;;
15528;SDS011;7866;52.280;9.500;2023-12-20T17:27:12;2.27;;;1.43;;
15528;SDS011;7866;52.280;9.500;2023-12-20T17:32:15;4.17;;;1.70;;
15528;SDS011;7866;52.280;9.500;2023-12-20T17:37:17;6.50;;;2.50;;
15528;SDS011;7866;52.280;9.500;2023-12-20T17:42:18;2.13;;;1.13;;
15528;SDS011;7866;52.280;9.500;2023-12-20T17:47:22;2.10;;;1.10;;
15528;SDS011;7866;52.280;9.500;2023-12-20T17:52:24;1.70;;;1.10;;
15528;SDS011;7866;52.280;9.500;2023-12-20T17:57:26;1.20;;;1.03;;
15528;SDS011;7866;52.280;9.500;2023-12-20T18:02:29;2.87;;;1.20;;
15528;SDS011;7866;52.280;9.500;2023-12-20T18:07:31;1.50;;;1.20;;
15528;SDS011;7866;52.280;9.500;2023-12-20T18:12:32;1.50;;;1.40;;
15528;SDS011;7866;52.280;9.500;2023-12-20T18:17:35;3.20;;;1.20;;
15528;SDS011;7866;52.280;9.500;2023-12-20T18:22:37;1.53;;;1.27;;
15528;SDS011;7866;52.280;9.500;2023-12-20T18:27:39;2.70;;;1.30;;
15528;SDS011;7866;52.280;9.500;2023-12-20T18:32:42;2.77;;;1.40;;
15528;SDS011;7866;52.280;9.500;2023-12-20T18:37:43;1.57;;;1.47;;
15528;SDS011;7866;52.280;9.500;2023-12-20T18:42:45;2.83;;;1.90;;
15528;SDS011;7866;52.280;9.500;2023-12-20T18:47:48;7.07;;;2.37;;
15528;SDS011;7866;52.280;9.500;2023-12-20T18:52:49;5.40;;;2.20;;
15528;SDS011;7866;52.280;9.500;2023-12-20T18:57:51;5.90;;;2.30;;
15528;SDS011;7866;52.280;9.500;2023-12-20T19:02:54;6.37;;;2.60;;
15528;SDS011;7866;52.280;9.500;2023-12-20T19:07:57;5.73;;;3.27;;
15528;SDS011;7866;52.280;9.500;2023-12-20T19:12:58;5.67;;;2.83;;
15528;SDS011;7866;52.280;9.500;2023-12-20T19:18:01;7.50;;;3.50;;
15528;SDS011;7866;52.280;9.500;2023-12-20T19:23:03;10.57;;;4.13;;
15528;SDS011;7866;52.280;9.500;2023-12-20T19:28:06;7.93;;;4.50;;
15528;SDS011;7866;52.280;9.500;2023-12-20T19:33:09;7.33;;;4.27;;
15528;SDS011;7866;52.280;9.500;2023-12-20T19:38:11;9.10;;;5.10;;
15528;SDS011;7866;52.280;9.500;2023-12-20T19:43:13;6.93;;;5.10;;
15528;SDS011;7866;52.280;9.500;2023-12-20T19:48:16;6.57;;;4.60;;
15528;SDS011;7866;52.280;9.500;2023-12-20T19:53:17;6.70;;;4.90;;
15528;SDS011;7866;52.280;9.500;2023-12-20T19:58:19;6.40;;;5.60;;
15528;SDS011;7866;52.280;9.500;2023-12-20T20:03:22;8.20;;;4.77;;
15528;SDS011;7866;52.280;9.500;2023-12-20T20:08:24;7.90;;;5.13;;
15528;SDS011;7866;52.280;9.500;2023-12-20T20:13:25;6.10;;;4.67;;
15528;SDS011;7866;52.280;9.500;2023-12-20T20:18:28;5.30;;;4.07;;
15528;SDS011;7866;52.280;9.500;2023-12-20T20:23:30;4.10;;;3.70;;
15528;SDS011;7866;52.280;9.500;2023-12-20T20:28:32;6.67;;;3.77;;
15528;SDS011;7866;52.280;9.500;2023-12-20T20:33:35;4.30;;;3.90;;
15528;SDS011;7866;52.280;9.500;2023-12-20T20:38:36;5.80;;;4.07;;
15528;SDS011;7866;52.280;9.500;2023-12-20T20:43:38;5.10;;;4.30;;
15528;SDS011;7866;52.280;9.500;2023-12-20T20:48:41;4.73;;;4.27;;
15528;SDS011;7866;52.280;9.500;2023-12-20T20:53:43;5.23;;;4.73;;
15528;SDS011;7866;52.280;9.500;2023-12-20T20:58:44;5.33;;;4.83;;
15528;SDS011;7866;52.280;9.500;2023-12-20T21:03:48;5.37;;;4.87;;
15528;SDS011;7866;52.280;9.500;2023-12-20T21:08:49;5.93;;;5.17;;
15528;SDS011;7866;52.280;9.500;2023-12-20T21:13:53;4.90;;;4.50;;
15528;SDS011;7866;52.280;9.500;2023-12-20T21:18:57;5.40;;;4.70;;
15528;SDS011;7866;52.280;9.500;2023-12-20T21:23:58;4.63;;;4.23;;
15528;SDS011;7866;52.280;9.500;2023-12-20T21:29:00;4.67;;;4.27;;
15528;SDS011;7866;52.280;9.500;2023-12-20T21:34:03;4.37;;;3.97;;
15528;SDS011;7866;52.280;9.500;2023-12-20T21:39:05;3.90;;;3.50;;
15528;SDS011;7866;52.280;9.500;2023-12-20T21:44:07;3.73;;;3.43;;
15528;SDS011;7866;52.280;9.500;2023-12-20T21:49:10;3.20;;;3.00;;
15528;SDS011;7866;52.280;9.500;2023-12-20T21:54:12;3.30;;;3.00;;
15528;SDS011;7866;52.280;9.500;2023-12-20T21:59:14;2.83;;;2.63;;
15528;SDS011;7866;52.280;9.500;2023-12-20T22:04:17;2.80;;;2.60;;
15528;SDS011;7866;52.280;9.500;2023-12-20T22:09:19;2.87;;;2.67;;
15528;SDS011;7866;52.280;9.500;2023-12-20T22:14:21;2.20;;;2.10;;
15528;SDS011;7866;52.280;9.500;2023-12-20T22:19:27;2.27;;;2.17;;
15528;SDS011;7866;52.280;9.500;2023-12-20T22:24:31;2.30;;;2.10;;
15528;SDS011;7866;52.280;9.500;2023-12-20T22:29:32;2.20;;;2.10;;
15528;SDS011;7866;52.280;9.500;2023-12-20T22:34:36;2.27;;;2.17;;
15528;SDS011;7866;52.280;9.500;2023-12-20T22:39:37;1.93;;;1.83;;
15528;SDS011;7866;52.280;9.500;2023-12-20T22:44:39;1.93;;;1.70;;
15528;SDS011;7866;52.280;9.500;2023-12-20T22:49:42;1.80;;;1.70;;
15528;SDS011;7866;52.280;9.500;2023-12-20T22:54:43;1.67;;;1.57;;
15528;SDS011;7866;52.280;9.500;2023-12-20T22:59:45;1.40;;;1.40;;
15528;SDS011;7866;52.280;9.500;2023-12-20T23:04:48;1.50;;;1.40;;
15528;SDS011;7866;52.280;9.500;2023-12-20T23:09:50;1.10;;;1.10;;
15528;SDS011;7866;52.280;9.500;2023-12-20T23:14:52;0.93;;;0.93;;
15528;SDS011;7866;52.280;9.500;2023-12-20T23:19:55;0.90;;;0.90;;
15528;SDS011;7866;52.280;9.500;2023-12-20T23:24:56;0.90;;;0.90;;
15528;SDS011;7866;52.280;9.500;2023-12-20T23:29:58;0.83;;;0.83;;
15528;SDS011;7866;52.280;9.500;2023-12-20T23:35:01;0.90;;;0.90;;
15528;SDS011;7866;52.280;9.500;2023-12-20T23:40:04;0.70;;;0.70;;
15528;SDS011;7866;52.280;9.500;2023-12-20T23:45:06;0.67;;;0.67;;
15528;SDS011;7866;52.280;9.500;2023-12-20T23:50:10;0.67;;;0.67;;
15528;SDS011;7866;52.280;9.500;2023-12-20T23:55:12;0.43;;;0.43;;
